Time;durP1;ratioP1;P1;durP2;ratioP2;P2;SDS_P1;SDS_P2;PMS_P1;PMS_P2;Temp;Humidity;BMP_temperature;BMP_pressure;BME280_temperature;BME280_humidity;BME280_pressure;Samples;Min_cycle;Max_cycle;Signal;HPM_P1;HPM_P2
2023/04/16 00:02:02;;;;;;;4.18;3.88;;;;;;;;;;5016842;28;20060;-88
2023/04/16 00:04:30;;;;;;;5.72;3.90;;;;;;;;;;5016857;28;20141;-88
2023/04/16 00:06:57;;;;;;;5.78;3.85;;;;;;;;;;5017037;28;20049;-89
2023/04/16 00:09:24;;;;;;;4.35;3.90;;;;;;;;;;5016744;28;20045;-89
2023/04/16 00:11:52;;;;;;;6.15;3.55;;;;;;;;;;5016098;28;20143;-88
2023/04/16 00:14:19;;;;;;;4.45;3.75;;;;;;;;;;5015572;28;20050;-88
2023/04/16 00:16:46;;;;;;;5.85;4.00;;;;;;;;;;5033639;28;20057;-88
2023/04/16 00:19:13;;;;;;;4.90;3.90;;;;;;;;;;5033737;28;20049;-88
2023/04/16 00:21:41;;;;;;;4.63;3.60;;;;;;;;;;5033554;28;20041;-88
2023/04/16 00:24:08;;;;;;;5.35;4.40;;;;;;;;;;5016372;28;20080;-87
2023/04/16 00:26:35;;;;;;;4.15;3.67;;;;;;;;;;5016269;28;20132;-88
2023/04/16 00:29:03;;;;;;;3.83;3.35;;;;;;;;;;5016148;28;20053;-88
2023/04/16 00:31:31;;;;;;;4.18;3.65;;;;;;;;;;5016412;28;20053;-88
2023/04/16 00:33:59;;;;;;;3.40;3.20;;;;;;;;;;5033726;28;20398;-88
2023/04/16 00:36:27;;;;;;;4.13;3.38;;;;;;;;;;5016001;28;20136;-88
2023/04/16 00:38:54;;;;;;;3.70;3.40;;;;;;;;;;5015925;28;20056;-88
2023/04/16 00:41:22;;;;;;;5.50;3.70;;;;;;;;;;5016199;28;20049;-88
2023/04/16 00:43:50;;;;;;;3.75;3.42;;;;;;;;;;5015975;28;20128;-88
2023/04/16 00:46:20;;;;;;;3.90;3.60;;;;;;;;;;5016241;28;20130;-89
2023/04/16 00:48:47;;;;;;;4.57;3.40;;;;;;;;;;5016034;28;20049;-88
2023/04/16 00:51:14;;;;;;;3.17;2.97;;;;;;;;;;5016016;28;20049;-88
2023/04/16 00:53:42;;;;;;;3.35;3.03;;;;;;;;;;5033288;28;20087;-89
2023/04/16 00:56:10;;;;;;;5.38;4.03;;;;;;;;;;5015972;28;20049;-88
2023/04/16 00:58:37;;;;;;;3.53;3.22;;;;;;;;;;5015969;28;20061;-88
2023/04/16 01:01:04;;;;;;;4.75;3.10;;;;;;;;;;5016014;28;20050;-88
2023/04/16 01:03:38;;;;;;;5.20;3.70;;;;;;;;;;5016000;28;20060;-88
2023/04/16 01:06:07;;;;;;;4.45;3.20;;;;;;;;;;5015749;28;20176;-88
2023/04/16 01:08:34;;;;;;;3.13;2.83;;;;;;;;;;5015787;28;20057;-87
2023/04/16 01:11:02;;;;;;;3.42;3.13;;;;;;;;;;5015819;28;20050;-88
2023/04/16 01:13:29;;;;;;;3.45;2.97;;;;;;;;;;5033090;28;20662;-89
2023/04/16 01:15:56;;;;;;;3.20;2.90;;;;;;;;;;5016001;28;20080;-89
2023/04/16 01:18:25;;;;;;;3.10;2.90;;;;;;;;;;5015673;28;20076;-88
2023/04/16 01:20:52;;;;;;;3.20;3.00;;;;;;;;;;5015700;28;20053;-89
2023/04/16 01:23:20;;;;;;;3.55;3.25;;;;;;;;;;5015671;28;20231;-89
2023/04/16 01:25:47;;;;;;;2.65;2.55;;;;;;;;;;5036774;28;20053;-88
2023/04/16 01:28:14;;;;;;;3.00;2.80;;;;;;;;;;5019569;28;20578;-89
2023/04/16 01:30:41;;;;;;;3.10;2.80;;;;;;;;;;5036721;28;20049;-89
2023/04/16 01:33:12;;;;;;;2.88;2.75;;;;;;;;;;5019435;28;20056;-88
2023/04/16 01:35:40;;;;;;;3.13;2.83;;;;;;;;;;5019358;28;20508;-89
2023/04/16 01:38:08;;;;;;;3.58;3.08;;;;;;;;;;5019550;28;20059;-89
2023/04/16 01:40:36;;;;;;;4.55;3.80;;;;;;;;;;5019346;28;20041;-89
2023/04/16 01:43:03;;;;;;;3.08;2.88;;;;;;;;;;5019205;28;20054;-89
2023/04/16 01:45:31;;;;;;;3.03;2.70;;;;;;;;;;5036425;28;20502;-89
2023/04/16 01:47:58;;;;;;;4.40;3.05;;;;;;;;;;5036420;28;20482;-89
2023/04/16 01:50:26;;;;;;;2.83;2.50;;;;;;;;;;5019267;28;20053;-89
2023/04/16 01:52:53;;;;;;;2.80;2.60;;;;;;;;;;5019285;28;20050;-89
2023/04/16 01:55:20;;;;;;;3.38;3.08;;;;;;;;;;5019153;28;20532;-89
2023/04/16 01:57:48;;;;;;;2.50;2.40;;;;;;;;;;5019066;28;20080;-88
2023/04/16 02:00:15;;;;;;;3.30;3.00;;;;;;;;;;5036378;28;20045;-88
2023/04/16 02:02:42;;;;;;;2.58;2.38;;;;;;;;;;5018669;28;20133;-89
2023/04/16 02:05:09;;;;;;;3.38;3.08;;;;;;;;;;5036122;28;20053;-89
2023/04/16 02:07:37;;;;;;;3.78;3.47;;;;;;;;;;5036053;28;20560;-90
2023/04/16 02:10:04;;;;;;;3.20;3.00;;;;;;;;;;5018808;28;20049;-89
2023/04/16 02:12:31;;;;;;;4.07;2.70;;;;;;;;;;5018463;28;20045;-89
2023/04/16 02:14:59;;;;;;;3.90;3.40;;;;;;;;;;5018607;28;20137;-89
2023/04/16 02:17:26;;;;;;;6.53;3.60;;;;;;;;;;5034362;28;20051;-89
2023/04/16 02:19:53;;;;;;;3.53;3.22;;;;;;;;;;5018260;28;20053;-89
2023/04/16 02:22:21;;;;;;;3.53;3.22;;;;;;;;;;5018457;28;20049;-89
2023/04/16 02:24:49;;;;;;;2.97;2.78;;;;;;;;;;5017864;28;20053;-89
2023/04/16 02:27:16;;;;;;;4.65;2.90;;;;;;;;;;5018113;28;20042;-90
2023/04/16 02:29:43;;;;;;;3.90;3.50;;;;;;;;;;5018027;28;20072;-89
2023/04/16 02:32:11;;;;;;;5.10;3.47;;;;;;;;;;5035533;28;20049;-89
2023/04/16 02:34:39;;;;;;;3.30;3.00;;;;;;;;;;5018098;28;20049;-89
2023/04/16 02:37:06;;;;;;;3.53;3.30;;;;;;;;;;5034610;28;20076;-89
2023/04/16 02:39:33;;;;;;;2.97;2.67;;;;;;;;;;5017949;28;20060;-89
2023/04/16 02:42:01;;;;;;;2.97;2.78;;;;;;;;;;5035581;28;20453;-89
2023/04/16 02:44:28;;;;;;;4.18;3.35;;;;;;;;;;5017727;28;20050;-90
2023/04/16 02:46:55;;;;;;;4.75;3.03;;;;;;;;;;5017946;28;20513;-87
2023/04/16 02:49:23;;;;;;;2.92;2.72;;;;;;;;;;5017987;28;20060;-88
2023/04/16 02:51:50;;;;;;;2.78;2.60;;;;;;;;;;5017723;28;20051;-89
2023/04/16 02:54:17;;;;;;;2.90;2.70;;;;;;;;;;5035015;28;20049;-89
2023/04/16 02:56:44;;;;;;;3.00;2.80;;;;;;;;;;5017452;28;20053;-89
2023/04/16 02:59:12;;;;;;;2.92;2.72;;;;;;;;;;5017686;28;20533;-89
2023/04/16 03:01:39;;;;;;;2.90;2.70;;;;;;;;;;5034789;28;20050;-89
2023/04/16 03:04:06;;;;;;;2.75;2.55;;;;;;;;;;5017209;28;20088;-89
2023/04/16 03:06:33;;;;;;;4.05;3.63;;;;;;;;;;5017360;28;20469;-89
2023/04/16 03:09:01;;;;;;;3.05;2.85;;;;;;;;;;5034679;28;20053;-89
2023/04/16 03:11:28;;;;;;;3.70;3.30;;;;;;;;;;5017186;28;20050;-88
2023/04/16 03:13:55;;;;;;;4.38;3.22;;;;;;;;;;5034537;28;20061;-88
2023/04/16 03:16:22;;;;;;;2.95;2.75;;;;;;;;;;5034694;28;20048;-89
2023/04/16 03:18:50;;;;;;;3.33;3.03;;;;;;;;;;5034738;28;20061;-89
2023/04/16 03:21:17;;;;;;;3.70;3.30;;;;;;;;;;5017181;28;20042;-89
2023/04/16 03:23:44;;;;;;;3.55;3.10;;;;;;;;;;5016868;28;20053;-89
2023/04/16 03:26:12;;;;;;;4.10;3.70;;;;;;;;;;5017182;28;20054;-89
2023/04/16 03:28:39;;;;;;;3.30;3.10;;;;;;;;;;5017165;28;20049;-89
2023/04/16 03:31:06;;;;;;;3.38;3.00;;;;;;;;;;5017471;28;20125;-89
2023/04/16 03:33:33;;;;;;;4.20;3.80;;;;;;;;;;5017020;28;20136;-89
2023/04/16 03:36:00;;;;;;;6.60;5.13;;;;;;;;;;5016891;28;20045;-90
2023/04/16 03:38:28;;;;;;;4.55;3.53;;;;;;;;;;5034214;28;20067;-89
2023/04/16 03:40:55;;;;;;;4.63;4.07;;;;;;;;;;5016973;28;20115;-89
2023/04/16 03:43:22;;;;;;;5.15;4.30;;;;;;;;;;5016829;28;20045;-89
2023/04/16 03:45:49;;;;;;;5.00;4.10;;;;;;;;;;5016873;28;20049;-89
2023/04/16 03:48:16;;;;;;;4.05;3.65;;;;;;;;;;5016651;28;20053;-89
2023/04/16 03:50:47;;;;;;;6.63;5.07;;;;;;;;;;5016686;28;20045;-89
2023/04/16 03:53:14;;;;;;;6.90;6.20;;;;;;;;;;5033814;28;20051;-89
2023/04/16 03:55:42;;;;;;;7.13;5.45;;;;;;;;;;5016284;28;20053;-89
2023/04/16 03:58:09;;;;;;;9.80;7.35;;;;;;;;;;5016706;28;20048;-89
2023/04/16 04:00:37;;;;;;;8.00;6.82;;;;;;;;;;5033808;28;20053;-89
2023/04/16 04:03:04;;;;;;;5.93;5.43;;;;;;;;;;5016557;28;20047;-90
2023/04/16 04:05:35;;;;;;;6.15;5.65;;;;;;;;;;5016376;28;20107;-89
2023/04/16 04:08:02;;;;;;;7.22;6.25;;;;;;;;;;5016683;28;20057;-89
2023/04/16 04:10:31;;;;;;;6.13;5.63;;;;;;;;;;5016604;28;20080;-89
2023/04/16 04:12:59;;;;;;;5.90;5.40;;;;;;;;;;5016435;28;20076;-90
2023/04/16 04:15:26;;;;;;;6.85;6.15;;;;;;;;;;5016009;28;20540;-90
2023/04/16 04:17:53;;;;;;;5.55;5.05;;;;;;;;;;5016171;28;20046;-89
2023/04/16 04:20:20;;;;;;;6.18;5.57;;;;;;;;;;5016432;28;20145;-89
2023/04/16 04:22:48;;;;;;;6.63;6.03;;;;;;;;;;5016132;28;20052;-89
2023/04/16 04:25:15;;;;;;;6.40;5.90;;;;;;;;;;5015849;28;20060;-89
2023/04/16 04:27:43;;;;;;;6.68;5.80;;;;;;;;;;5016086;28;20045;-89
2023/04/16 04:30:10;;;;;;;7.10;6.40;;;;;;;;;;5015718;28;20057;-90
2023/04/16 04:32:37;;;;;;;8.48;6.70;;;;;;;;;;5016289;28;20051;-90
2023/04/16 04:35:05;;;;;;;6.72;6.03;;;;;;;;;;5015864;28;20049;-89
2023/04/16 04:37:32;;;;;;;6.57;5.97;;;;;;;;;;5015915;28;20046;-89
2023/04/16 04:39:59;;;;;;;5.95;5.50;;;;;;;;;;5015965;28;20067;-89
2023/04/16 04:42:27;;;;;;;6.82;5.63;;;;;;;;;;5015884;28;20049;-88
2023/04/16 04:44:54;;;;;;;5.22;4.82;;;;;;;;;;5015711;28;20056;-90
2023/04/16 04:47:21;;;;;;;6.35;5.75;;;;;;;;;;5015973;28;20049;-88
2023/04/16 04:49:48;;;;;;;5.25;4.75;;;;;;;;;;5016035;28;20053;-89
2023/04/16 04:52:15;;;;;;;5.68;5.15;;;;;;;;;;5016102;28;20427;-89
2023/04/16 04:54:42;;;;;;;5.45;4.95;;;;;;;;;;5015921;28;20046;-90
2023/04/16 04:57:10;;;;;;;6.10;5.50;;;;;;;;;;5015889;28;20103;-90
2023/04/16 04:59:37;;;;;;;5.38;4.97;;;;;;;;;;5017880;28;20087;-90
2023/04/16 05:02:04;;;;;;;6.53;5.93;;;;;;;;;;5020033;28;20049;-90
2023/04/16 05:04:31;;;;;;;6.10;5.60;;;;;;;;;;5019720;28;20045;-89
2023/04/16 05:06:59;;;;;;;5.57;5.07;;;;;;;;;;5019858;28;20091;-90
2023/04/16 05:09:26;;;;;;;6.50;5.90;;;;;;;;;;5019895;28;20077;-90
2023/04/16 05:11:53;;;;;;;7.70;6.68;;;;;;;;;;5019651;28;20497;-90
2023/04/16 05:14:20;;;;;;;11.85;7.88;;;;;;;;;;5019872;28;20061;-89
2023/04/16 05:16:47;;;;;;;8.40;7.38;;;;;;;;;;5019720;28;20060;-89
2023/04/16 05:19:16;;;;;;;7.70;6.88;;;;;;;;;;5019541;28;20054;-89
2023/04/16 05:21:43;;;;;;;8.65;7.57;;;;;;;;;;5019503;28;20046;-90
2023/04/16 05:24:10;;;;;;;10.38;8.23;;;;;;;;;;5019250;28;20049;-90
2023/04/16 05:26:40;;;;;;;8.90;7.43;;;;;;;;;;5019682;28;20049;-89
2023/04/16 05:29:08;;;;;;;8.55;7.35;;;;;;;;;;5019446;28;20128;-89
2023/04/16 05:31:35;;;;;;;7.90;7.18;;;;;;;;;;5019511;28;20053;-90
2023/04/16 05:34:05;;;;;;;8.43;7.40;;;;;;;;;;5019824;28;20052;-90
2023/04/16 05:36:32;;;;;;;8.23;7.20;;;;;;;;;;5019311;28;20053;-89
2023/04/16 05:38:59;;;;;;;7.70;6.88;;;;;;;;;;5019125;28;20049;-90
2023/04/16 05:41:27;;;;;;;9.05;7.25;;;;;;;;;;5019164;28;20049;-89
2023/04/16 05:43:57;;;;;;;7.32;6.57;;;;;;;;;;5019280;28;20486;-90
2023/04/16 05:46:24;;;;;;;8.70;6.90;;;;;;;;;;5019133;28;20061;-90
2023/04/16 05:48:51;;;;;;;9.15;7.50;;;;;;;;;;5019163;28;20049;-90
2023/04/16 05:51:21;;;;;;;7.55;6.57;;;;;;;;;;5018806;28;20045;-88
2023/04/16 05:53:49;;;;;;;7.00;6.30;;;;;;;;;;5018733;28;20421;-90
2023/04/16 05:56:16;;;;;;;7.45;6.75;;;;;;;;;;5018851;28;20072;-90
2023/04/16 05:58:43;;;;;;;9.57;7.60;;;;;;;;;;5018913;28;20437;-89
2023/04/16 06:01:11;;;;;;;7.25;6.40;;;;;;;;;;5018990;28;20136;-90
2023/04/16 06:03:38;;;;;;;8.10;7.15;;;;;;;;;;5018748;28;20075;-90
2023/04/16 06:06:07;;;;;;;7.45;6.75;;;;;;;;;;5018626;28;20084;-90
2023/04/16 06:08:34;;;;;;;6.20;5.60;;;;;;;;;;5018699;28;20049;-90
2023/04/16 06:11:01;;;;;;;6.47;5.88;;;;;;;;;;5017438;28;20057;-90
2023/04/16 06:13:29;;;;;;;9.73;8.73;;;;;;;;;;5018555;28;20045;-90
2023/04/16 06:15:56;;;;;;;6.88;6.22;;;;;;;;;;5018343;28;20057;-91
2023/04/16 06:18:23;;;;;;;6.82;6.13;;;;;;;;;;5018265;28;20061;-90
2023/04/16 06:20:50;;;;;;;7.85;6.47;;;;;;;;;;5018432;28;20133;-89
2023/04/16 06:23:20;;;;;;;7.35;6.72;;;;;;;;;;5018750;28;20057;-90
2023/04/16 06:25:47;;;;;;;9.48;7.10;;;;;;;;;;5018068;28;20049;-90
2023/04/16 06:28:14;;;;;;;7.10;6.47;;;;;;;;;;5018416;28;20063;-90
2023/04/16 06:30:41;;;;;;;7.97;6.60;;;;;;;;;;5017968;28;20056;-90
2023/04/16 06:33:11;;;;;;;6.13;5.63;;;;;;;;;;5018349;28;20354;-90
2023/04/16 06:35:38;;;;;;;6.03;5.53;;;;;;;;;;5018196;28;20061;-90
2023/04/16 06:38:05;;;;;;;9.27;6.82;;;;;;;;;;5018161;28;20409;-90
2023/04/16 06:40:32;;;;;;;8.63;6.63;;;;;;;;;;5018127;28;20445;-89
2023/04/16 06:43:00;;;;;;;7.22;6.03;;;;;;;;;;5018034;28;20049;-90
2023/04/16 06:45:27;;;;;;;8.70;6.07;;;;;;;;;;5017675;28;20057;-89
2023/04/16 06:47:54;;;;;;;5.10;4.70;;;;;;;;;;5018299;28;20057;-89
2023/04/16 06:50:22;;;;;;;5.10;4.70;;;;;;;;;;5018264;28;20057;-90
2023/04/16 06:52:49;;;;;;;5.13;4.68;;;;;;;;;;5017865;28;20050;-89
2023/04/16 06:55:16;;;;;;;4.78;4.38;;;;;;;;;;5017267;28;20053;-90
2023/04/16 06:57:44;;;;;;;4.00;3.70;;;;;;;;;;5017728;28;20073;-89
2023/04/16 07:00:11;;;;;;;4.15;3.15;;;;;;;;;;5017782;28;20060;-89
2023/04/16 07:02:38;;;;;;;2.60;2.50;;;;;;;;;;5017587;28;20068;-90
2023/04/16 07:05:06;;;;;;;3.75;3.45;;;;;;;;;;5018241;28;20104;-90
2023/04/16 07:07:33;;;;;;;3.30;3.00;;;;;;;;;;5017728;28;20057;-90
2023/04/16 07:10:00;;;;;;;3.17;2.92;;;;;;;;;;5017634;28;20049;-90
2023/04/16 07:12:27;;;;;;;3.50;3.30;;;;;;;;;;5017583;28;20048;-90
2023/04/16 07:14:55;;;;;;;3.35;3.15;;;;;;;;;;5017196;28;20657;-90
2023/04/16 07:17:22;;;;;;;3.83;3.53;;;;;;;;;;5017336;28;20077;-89
2023/04/16 07:19:51;;;;;;;5.43;3.50;;;;;;;;;;5017695;28;20059;-89
2023/04/16 07:22:18;;;;;;;4.20;3.83;;;;;;;;;;5016945;28;20050;-89
2023/04/16 07:24:45;;;;;;;3.95;3.60;;;;;;;;;;5017200;28;20548;-89
2023/04/16 07:27:12;;;;;;;4.55;3.83;;;;;;;;;;5017384;28;20053;-88
2023/04/16 07:29:40;;;;;;;4.10;3.40;;;;;;;;;;5016529;28;20057;-89
2023/04/16 07:32:07;;;;;;;3.33;3.13;;;;;;;;;;5017088;28;20053;-90
2023/04/16 07:34:34;;;;;;;4.45;3.35;;;;;;;;;;5017183;28;20049;-90
2023/04/16 07:37:01;;;;;;;3.75;3.47;;;;;;;;;;5017381;28;20069;-90
2023/04/16 07:39:29;;;;;;;4.03;3.65;;;;;;;;;;5017090;28;20050;-90
2023/04/16 07:41:56;;;;;;;4.15;3.85;;;;;;;;;;5016782;28;20136;-90
2023/04/16 07:44:23;;;;;;;4.28;3.97;;;;;;;;;;5016906;28;20485;-90
2023/04/16 07:46:50;;;;;;;4.80;4.40;;;;;;;;;;5016913;28;20061;-90
2023/04/16 07:49:18;;;;;;;6.35;4.60;;;;;;;;;;5016905;28;20481;-90
2023/04/16 07:51:45;;;;;;;4.70;4.30;;;;;;;;;;5016732;28;20056;-90
2023/04/16 07:54:12;;;;;;;7.03;5.15;;;;;;;;;;5016708;28;20494;-90
2023/04/16 07:56:39;;;;;;;6.28;5.68;;;;;;;;;;5016633;28;20512;-90
2023/04/16 07:59:07;;;;;;;5.90;5.30;;;;;;;;;;5016748;28;20119;-90
2023/04/16 08:01:49;;;;;;;5.88;5.38;;;;;;;;;;5019090;28;20111;-90
2023/04/16 08:04:21;;;;;;;8.25;6.10;;;;;;;;;;5016513;28;20049;-90
2023/04/16 08:06:50;;;;;;;7.30;6.50;;;;;;;;;;5016686;28;20092;-89
2023/04/16 08:09:19;;;;;;;5.85;5.35;;;;;;;;;;5016393;28;20300;-88
2023/04/16 08:11:48;;;;;;;7.97;6.97;;;;;;;;;;5016697;28;20546;-89
2023/04/16 08:14:18;;;;;;;7.25;6.55;;;;;;;;;;5016286;28;20498;-90
2023/04/16 08:16:45;;;;;;;4.53;4.18;;;;;;;;;;5015488;28;20060;-90
2023/04/16 08:19:12;;;;;;;4.22;3.92;;;;;;;;;;5014774;28;20049;-90
2023/04/16 08:21:39;;;;;;;8.38;4.72;;;;;;;;;;5015608;28;20049;-89
2023/04/16 08:24:07;;;;;;;4.90;4.43;;;;;;;;;;5016512;28;20476;-89
2023/04/16 08:26:34;;;;;;;30.45;20.88;;;;;;;;;;5016082;28;20080;-90
2023/04/16 08:29:01;;;;;;;4.70;4.18;;;;;;;;;;5016057;28;20061;-90
2023/04/16 08:31:29;;;;;;;3.00;2.80;;;;;;;;;;5015878;28;20064;-90
2023/04/16 08:33:56;;;;;;;3.75;3.08;;;;;;;;;;5015300;28;20070;-90
2023/04/16 08:36:23;;;;;;;2.72;2.60;;;;;;;;;;5015904;28;20049;-90
2023/04/16 08:38:51;;;;;;;2.55;2.45;;;;;;;;;;5033486;28;20474;-90
2023/04/16 08:41:21;;;;;;;2.53;2.40;;;;;;;;;;5016130;28;20123;-90
2023/04/16 08:43:50;;;;;;;2.10;2.00;;;;;;;;;;5016123;28;20104;-91
2023/04/16 08:46:19;;;;;;;2.22;2.03;;;;;;;;;;5015538;28;20055;-90
2023/04/16 08:48:49;;;;;;;2.17;2.08;;;;;;;;;;5015563;28;20045;-90
2023/04/16 08:51:16;;;;;;;2.50;2.30;;;;;;;;;;5010694;28;20162;-90
2023/04/16 08:53:53;;;;;;;2.30;2.20;;;;;;;;;;4995780;28;20060;-90
2023/04/16 08:56:22;;;;;;;2.92;2.72;;;;;;;;;;4996080;28;20058;-90
2023/04/16 08:58:50;;;;;;;2.38;2.28;;;;;;;;;;4996164;28;20050;-90
2023/04/16 09:01:18;;;;;;;2.60;2.40;;;;;;;;;;5013484;28;20086;-89
2023/04/16 09:03:49;;;;;;;2.50;2.30;;;;;;;;;;4995816;28;20052;-89
2023/04/16 09:06:17;;;;;;;2.97;2.78;;;;;;;;;;5013095;28;20137;-89
2023/04/16 09:08:45;;;;;;;14.32;8.80;;;;;;;;;;4996281;28;20133;-90
2023/04/16 09:11:19;;;;;;;4.40;3.95;;;;;;;;;;4996235;28;20138;-90
2023/04/16 09:13:46;;;;;;;4.35;3.28;;;;;;;;;;5013345;28;20406;-90
2023/04/16 09:16:14;;;;;;;2.40;2.30;;;;;;;;;;5013695;28;20417;-90
2023/04/16 09:18:46;;;;;;;2.30;2.20;;;;;;;;;;4996890;28;20050;-90
2023/04/16 09:21:13;;;;;;;2.20;2.10;;;;;;;;;;4996107;28;20045;-90
2023/04/16 09:23:41;;;;;;;6.18;2.00;;;;;;;;;;5012463;28;20513;-90
2023/04/16 09:26:08;;;;;;;2.35;2.25;;;;;;;;;;5013214;28;20054;-90
2023/04/16 09:28:43;;;;;;;2.45;2.35;;;;;;;;;;4995874;28;20501;-90
2023/04/16 09:31:12;;;;;;;11.85;8.13;;;;;;;;;;4996224;28;20411;-91
2023/04/16 09:33:39;;;;;;;27.35;16.50;;;;;;;;;;4995811;28;20387;-90
2023/04/16 09:36:07;;;;;;;8.63;7.15;;;;;;;;;;4995968;28;20093;-90
2023/04/16 09:38:47;;;;;;;19.27;12.98;;;;;;;;;;5013242;28;20081;-92
2023/04/16 09:41:17;;;;;;;4.00;3.70;;;;;;;;;;5013147;28;20058;-90
2023/04/16 09:43:59;;;;;;;2.47;2.30;;;;;;;;;;4995825;28;20085;-90
2023/04/16 09:46:42;;;;;;;5.03;4.63;;;;;;;;;;5015853;28;20060;-90
2023/04/16 09:49:09;;;;;;;21.85;16.63;;;;;;;;;;5016975;28;20056;-90
2023/04/16 09:51:37;;;;;;;18.02;14.88;;;;;;;;;;4999413;28;20104;-90
2023/04/16 09:54:05;;;;;;;2.60;2.40;;;;;;;;;;5016528;28;20061;-90
2023/04/16 09:56:33;;;;;;;4.45;4.10;;;;;;;;;;4999068;28;20054;-90
2023/04/16 09:59:00;;;;;;;5.03;4.25;;;;;;;;;;4999302;28;20459;-90
2023/04/16 10:01:30;;;;;;;337.80;130.38;;;;;;;;;;4998986;28;20056;-90
2023/04/16 10:03:59;;;;;;;29.35;13.88;;;;;;;;;;4999303;28;20057;-90
2023/04/16 10:06:28;;;;;;;5.55;3.75;;;;;;;;;;4998362;28;20574;-90
2023/04/16 10:08:55;;;;;;;19.50;10.32;;;;;;;;;;4999076;28;20065;-90
2023/04/16 10:11:23;;;;;;;6.00;3.10;;;;;;;;;;4998928;28;20481;-90
2023/04/16 10:13:50;;;;;;;211.57;92.45;;;;;;;;;;4998457;28;20057;-90
2023/04/16 10:16:18;;;;;;;42.50;21.48;;;;;;;;;;4997547;28;20077;-90
2023/04/16 10:18:46;;;;;;;4.82;3.83;;;;;;;;;;4999544;28;20137;-90
2023/04/16 10:21:15;;;;;;;10.00;6.45;;;;;;;;;;4999255;28;20061;-90
2023/04/16 10:23:42;;;;;;;22.38;14.38;;;;;;;;;;4999389;28;20050;-90
2023/04/16 10:26:10;;;;;;;40.42;24.98;;;;;;;;;;4999186;28;20065;-90
2023/04/16 10:28:37;;;;;;;2.67;2.45;;;;;;;;;;4998278;28;20049;-90
2023/04/16 10:31:08;;;;;;;1.70;1.60;;;;;;;;;;4998769;28;20064;-90
2023/04/16 10:33:36;;;;;;;1.85;1.75;;;;;;;;;;4998859;28;20479;-91
2023/04/16 10:36:07;;;;;;;1.92;1.73;;;;;;;;;;4998655;28;20056;-90
2023/04/16 10:38:34;;;;;;;1.90;1.80;;;;;;;;;;4998464;28;20057;-89
2023/04/16 10:41:03;;;;;;;1.83;1.73;;;;;;;;;;4998494;28;20069;-90
2023/04/16 10:43:31;;;;;;;1.80;1.70;;;;;;;;;;4998440;28;20056;-90
2023/04/16 10:46:16;;;;;;;2.08;1.77;;;;;;;;;;4998491;28;20054;-90
2023/04/16 10:48:44;;;;;;;4.53;2.50;;;;;;;;;;4998336;28;20046;-90
2023/04/16 10:51:32;;;;;;;1.95;1.55;;;;;;;;;;4998844;28;20060;-90
2023/04/16 10:54:13;;;;;;;128.07;78.03;;;;;;;;;;4998203;28;20498;-90
2023/04/16 10:56:40;;;;;;;9.00;8.10;;;;;;;;;;4997756;28;20465;-90
2023/04/16 10:59:09;;;;;;;5.05;3.10;;;;;;;;;;4998281;28;20048;-90
2023/04/16 11:01:40;;;;;;;2.22;2.13;;;;;;;;;;4998118;28;20053;-90
2023/04/16 11:04:37;;;;;;;1.75;1.67;;;;;;;;;;4998308;28;20058;-90
2023/04/16 11:07:13;;;;;;;4.07;3.88;;;;;;;;;;4989815;28;20046;-87
2023/04/16 11:09:46;;;;;;;1.88;1.77;;;;;;;;;;4997923;28;20066;-90
2023/04/16 11:12:15;;;;;;;2.47;2.38;;;;;;;;;;4997219;28;20042;-90
2023/04/16 11:14:42;;;;;;;3.72;3.47;;;;;;;;;;4997832;28;20136;-90
2023/04/16 11:17:09;;;;;;;2.40;2.30;;;;;;;;;;4997992;28;20052;-90
2023/04/16 11:19:37;;;;;;;2.22;2.10;;;;;;;;;;4997970;28;20478;-90
2023/04/16 11:22:04;;;;;;;2.50;2.40;;;;;;;;;;4997911;28;20133;-90
2023/04/16 11:24:32;;;;;;;2.60;2.40;;;;;;;;;;4997083;28;20379;-90
2023/04/16 11:27:00;;;;;;;2.55;2.35;;;;;;;;;;4997453;28;20068;-90
2023/04/16 11:29:27;;;;;;;2.30;2.20;;;;;;;;;;4997376;28;20054;-90
2023/04/16 11:31:55;;;;;;;2.60;2.50;;;;;;;;;;4997900;28;20049;-90
2023/04/16 11:34:22;;;;;;;1.98;1.88;;;;;;;;;;4997742;28;20642;-90
2023/04/16 11:36:50;;;;;;;2.00;1.90;;;;;;;;;;4997427;28;20050;-90
2023/04/16 11:39:18;;;;;;;2.30;2.20;;;;;;;;;;4997354;28;20050;-89
2023/04/16 11:41:46;;;;;;;2.28;2.17;;;;;;;;;;4997329;28;20064;-90
2023/04/16 11:44:25;;;;;;;2.70;2.10;;;;;;;;;;4997260;28;20136;-90
2023/04/16 11:46:52;;;;;;;2.17;2.08;;;;;;;;;;4997202;28;20426;-89
2023/04/16 11:49:29;;;;;;;1.90;1.85;;;;;;;;;;4997320;28;20383;-90
2023/04/16 11:51:57;;;;;;;2.15;2.05;;;;;;;;;;4997173;28;20064;-90
2023/04/16 11:54:25;;;;;;;2.17;2.05;;;;;;;;;;4997204;28;20046;-90
2023/04/16 11:56:52;;;;;;;1.80;1.70;;;;;;;;;;4997158;28;20081;-90
2023/04/16 11:59:21;;;;;;;1.70;1.60;;;;;;;;;;4997359;28;20402;-90
2023/04/16 12:01:50;;;;;;;2.40;2.20;;;;;;;;;;4997269;28;20061;-90
2023/04/16 12:04:25;;;;;;;2.25;2.13;;;;;;;;;;4997079;28;20065;-91
2023/04/16 12:07:09;;;;;;;1.83;1.77;;;;;;;;;;4996759;28;20488;-89
2023/04/16 12:09:37;;;;;;;2.25;2.15;;;;;;;;;;4997213;28;20050;-90
2023/04/16 12:12:25;;;;;;;2.55;2.45;;;;;;;;;;4997121;28;20073;-90
2023/04/16 12:14:53;;;;;;;2.70;2.60;;;;;;;;;;4996522;28;20136;-90
2023/04/16 12:17:21;;;;;;;2.28;2.17;;;;;;;;;;4996791;28;20112;-90
2023/04/16 12:19:49;;;;;;;2.10;2.00;;;;;;;;;;4997266;28;20498;-90
2023/04/16 12:22:17;;;;;;;2.67;2.55;;;;;;;;;;4996145;28;20141;-90
2023/04/16 12:24:44;;;;;;;2.75;2.63;;;;;;;;;;4996599;28;20108;-90
2023/04/16 12:27:11;;;;;;;3.28;2.80;;;;;;;;;;4996416;28;20398;-91
2023/04/16 12:29:40;;;;;;;8.45;7.28;;;;;;;;;;4980267;28;20053;-90
2023/04/16 12:32:20;;;;;;;4.13;3.78;;;;;;;;;;4996706;28;20529;-88
2023/04/16 12:34:51;;;;;;;7.13;6.38;;;;;;;;;;4996801;28;20041;-90
2023/04/16 12:37:18;;;;;;;4.90;4.50;;;;;;;;;;4996724;28;20573;-90
2023/04/16 12:39:45;;;;;;;4.35;4.03;;;;;;;;;;4996321;28;20109;-90
2023/04/16 12:42:14;;;;;;;4.28;3.58;;;;;;;;;;4996409;28;20157;-90
2023/04/16 12:44:41;;;;;;;6.63;4.38;;;;;;;;;;4996446;28;20056;-90
2023/04/16 12:47:08;;;;;;;4.20;3.90;;;;;;;;;;4996420;28;20052;-90
2023/04/16 12:49:36;;;;;;;3.50;3.20;;;;;;;;;;4996486;28;20402;-90
2023/04/16 12:52:03;;;;;;;3.88;3.60;;;;;;;;;;4996695;28;20054;-91
2023/04/16 12:54:30;;;;;;;2.80;2.60;;;;;;;;;;4996475;28;20057;-91
2023/04/16 12:56:57;;;;;;;3.28;3.08;;;;;;;;;;4996400;28;20050;-90
2023/04/16 12:59:24;;;;;;;3.30;3.10;;;;;;;;;;4996461;28;20072;-90
2023/04/16 13:01:51;;;;;;;3.47;3.25;;;;;;;;;;4996587;28;20057;-90
2023/04/16 13:04:19;;;;;;;2.58;2.38;;;;;;;;;;4996586;28;20072;-90
2023/04/16 13:06:49;;;;;;;3.08;2.88;;;;;;;;;;4996556;28;20053;-90
2023/04/16 13:09:18;;;;;;;2.83;2.60;;;;;;;;;;4996154;28;20058;-89
2023/04/16 13:11:45;;;;;;;2.65;2.45;;;;;;;;;;4996284;28;20068;-90
2023/04/16 13:14:12;;;;;;;3.42;3.15;;;;;;;;;;4996367;28;20410;-89
2023/04/16 13:16:39;;;;;;;3.22;3.00;;;;;;;;;;4995896;28;20058;-89
2023/04/16 13:19:07;;;;;;;3.28;2.97;;;;;;;;;;4996130;28;20045;-89
2023/04/16 13:21:34;;;;;;;2.78;2.67;;;;;;;;;;4999727;28;20050;-89
2023/04/16 13:24:02;;;;;;;3.03;2.75;;;;;;;;;;5000069;28;20418;-90
2023/04/16 13:26:29;;;;;;;3.03;2.83;;;;;;;;;;4999825;28;20068;-89
2023/04/16 13:28:56;;;;;;;3.20;2.92;;;;;;;;;;4999618;28;20136;-89
2023/04/16 13:31:24;;;;;;;3.50;3.20;;;;;;;;;;4999875;28;20045;-88
2023/04/16 13:33:51;;;;;;;3.35;2.70;;;;;;;;;;4999790;28;20076;-89
2023/04/16 13:36:18;;;;;;;2.70;2.58;;;;;;;;;;5016973;28;20046;-90
2023/04/16 13:38:46;;;;;;;2.47;2.38;;;;;;;;;;4999699;28;20457;-89
2023/04/16 13:41:13;;;;;;;3.78;2.00;;;;;;;;;;5000001;28;20425;-90
2023/04/16 13:43:40;;;;;;;2.53;2.42;;;;;;;;;;4999654;28;20065;-90
2023/04/16 13:46:07;;;;;;;3.50;3.20;;;;;;;;;;4998271;28;20046;-90
2023/04/16 13:48:34;;;;;;;2.25;2.15;;;;;;;;;;4999485;28;20058;-90
2023/04/16 13:51:02;;;;;;;2.30;2.20;;;;;;;;;;4999452;28;20045;-90
2023/04/16 13:53:29;;;;;;;2.30;2.20;;;;;;;;;;4999421;28;20137;-90
2023/04/16 13:55:56;;;;;;;2.53;2.42;;;;;;;;;;4999607;28;20050;-89
2023/04/16 13:58:24;;;;;;;2.25;2.15;;;;;;;;;;4999305;28;20483;-90
2023/04/16 14:00:51;;;;;;;2.20;2.10;;;;;;;;;;4998848;28;20570;-89
2023/04/16 14:03:18;;;;;;;2.20;2.10;;;;;;;;;;4999094;28;20060;-90
2023/04/16 14:05:46;;;;;;;1.80;1.70;;;;;;;;;;4999058;28;20558;-90
2023/04/16 14:08:15;;;;;;;2.20;2.10;;;;;;;;;;4999077;28;20054;-88
2023/04/16 14:10:42;;;;;;;1.80;1.70;;;;;;;;;;4999089;28;20050;-89
2023/04/16 14:13:09;;;;;;;2.20;2.10;;;;;;;;;;4999002;28;20054;-89
2023/04/16 14:15:37;;;;;;;2.25;2.10;;;;;;;;;;4999042;28;20054;-89
2023/04/16 14:18:05;;;;;;;3.40;3.20;;;;;;;;;;4997609;28;20633;-89
2023/04/16 14:20:32;;;;;;;2.97;2.78;;;;;;;;;;4998878;28;20061;-90
2023/04/16 14:22:59;;;;;;;2.90;2.70;;;;;;;;;;4999049;28;20418;-89
2023/04/16 14:25:26;;;;;;;21.02;14.35;;;;;;;;;;4998835;28;20057;-90
2023/04/16 14:27:53;;;;;;;4.32;3.53;;;;;;;;;;4998669;28;20064;-90
2023/04/16 14:30:21;;;;;;;13.07;9.35;;;;;;;;;;4998468;28;20069;-89
2023/04/16 14:32:48;;;;;;;24.10;16.92;;;;;;;;;;4997608;28;20058;-90
2023/04/16 14:35:15;;;;;;;5.07;4.63;;;;;;;;;;4998825;28;20053;-90
2023/04/16 14:37:43;;;;;;;4.55;4.15;;;;;;;;;;4998647;28;20097;-90
2023/04/16 14:40:11;;;;;;;7.32;6.63;;;;;;;;;;4998575;28;20056;-90
2023/04/16 14:42:38;;;;;;;8.40;6.43;;;;;;;;;;4998413;28;20061;-89
2023/04/16 14:45:06;;;;;;;5.00;4.53;;;;;;;;;;4998736;28;20046;-90
2023/04/16 14:47:34;;;;;;;70.85;39.30;;;;;;;;;;4998179;28;20141;-91